Ryno, Nebraska
Current Conditions -  °F | °C
As of 10:53 AM on Sunday 23 Nov 2014 (Local Time) from KBBW Reporting Station
Clear Clear  
Wind Chill: 34°   Ceiling: Unl
Heat Index: 44°   Visibility: 10mi
Dew Point: 27°   Wind: 32mph
Humidity: 51%   Direction: 350°N
Pressure: 29.65"   Gusts: 43mph
Location:  41.1872°N, 100.067°W
Report Text: KBBW 231653Z AUTO 35028G37KT 10SM CLR 07/M03 A2965 RMK AO2 PK WND 35037/1653 SLP045 T00671028 PWINO $
Loading
Personal Weather Stations






























Interactive Weather Map New forecast layout! Learn more

10-Day Weather Forecast

Advertisements
Track Severe Weather on mobile